Time;durP1;ratioP1;P1;durP2;ratioP2;P2;SDS_P1;SDS_P2;PMS_P1;PMS_P2;Temp;Humidity;BMP_temperature;BMP_pressure;BME280_temperature;BME280_humidity;BME280_pressure;Samples;Min_cycle;Max_cycle;Signal;HPM_P1;HPM_P2
2023/05/25 00:01:23;;;;;;;15.40;13.70;;;;;;;;;;4982593;28;20234;-86
2023/05/25 00:03:51;;;;;;;15.23;13.60;;;;;;;;;;4969582;28;20225;-87
2023/05/25 00:06:19;;;;;;;16.47;13.17;;;;;;;;;;4967443;28;20228;-85
2023/05/25 00:08:45;;;;;;;20.10;14.17;;;;;;;;;;5004557;28;20217;-85
2023/05/25 00:11:11;;;;;;;15.97;13.77;;;;;;;;;;4949643;28;20229;-87
2023/05/25 00:13:38;;;;;;;18.53;14.97;;;;;;;;;;4944159;28;20361;-88
2023/05/25 00:16:06;;;;;;;18.20;13.87;;;;;;;;;;4979139;28;20221;-84
2023/05/25 00:18:36;;;;;;;21.80;14.83;;;;;;;;;;5005390;28;20225;-81
2023/05/25 00:21:07;;;;;;;16.80;14.67;;;;;;;;;;5003102;28;20248;-81
2023/05/25 00:23:32;;;;;;;15.97;14.37;;;;;;;;;;5009221;28;20214;-82
2023/05/25 00:26:01;;;;;;;17.90;14.83;;;;;;;;;;4977152;28;20222;-82
2023/05/25 00:28:26;;;;;;;18.97;15.70;;;;;;;;;;4996546;28;20236;-81
2023/05/25 00:30:54;;;;;;;18.53;15.37;;;;;;;;;;5012472;28;20225;-81
2023/05/25 00:33:22;;;;;;;17.33;15.50;;;;;;;;;;4960037;28;20230;-86
2023/05/25 00:35:48;;;;;;;18.43;14.67;;;;;;;;;;4992258;28;20257;-84
2023/05/25 00:38:20;;;;;;;20.33;14.57;;;;;;;;;;4979669;28;20225;-84
2023/05/25 00:40:46;;;;;;;19.80;15.10;;;;;;;;;;4987568;23;20225;-75
2023/05/25 00:43:14;;;;;;;16.97;15.27;;;;;;;;;;4984400;28;20292;-75
2023/05/25 00:45:40;;;;;;;19.37;15.30;;;;;;;;;;4968359;28;20225;-76
2023/05/25 00:48:05;;;;;;;17.73;15.13;;;;;;;;;;5000338;28;20225;-76
2023/05/25 00:50:39;;;;;;;18.37;14.90;;;;;;;;;;4972157;28;20605;-76
2023/05/25 00:53:10;;;;;;;18.47;14.87;;;;;;;;;;5004534;28;20763;-76
2023/05/25 00:55:49;;;;;;;21.03;15.13;;;;;;;;;;4983540;28;20624;-76
2023/05/25 00:58:19;;;;;;;17.50;15.63;;;;;;;;;;4986908;28;20217;-76
2023/05/25 01:00:49;;;;;;;19.67;15.27;;;;;;;;;;5011443;28;20675;-76
2023/05/25 01:03:20;;;;;;;18.77;15.63;;;;;;;;;;5001370;28;20220;-76
2023/05/25 01:05:50;;;;;;;20.93;15.73;;;;;;;;;;5000660;28;20721;-76
2023/05/25 01:08:20;;;;;;;17.87;15.33;;;;;;;;;;5001953;28;20239;-75
2023/05/25 01:10:48;;;;;;;19.87;15.07;;;;;;;;;;5002677;28;20208;-75
2023/05/25 01:13:17;;;;;;;21.13;16.00;;;;;;;;;;4980745;28;20229;-76
2023/05/25 01:15:46;;;;;;;20.80;14.93;;;;;;;;;;4981710;28;20352;-75
2023/05/25 01:18:15;;;;;;;18.77;15.63;;;;;;;;;;4997225;28;20240;-76
2023/05/25 01:21:01;;;;;;;18.07;15.50;;;;;;;;;;4982074;28;20227;-75
2023/05/25 01:23:31;;;;;;;19.90;16.03;;;;;;;;;;4986542;28;20216;-77
2023/05/25 01:25:58;;;;;;;17.47;15.53;;;;;;;;;;4984950;28;20227;-76
2023/05/25 01:28:27;;;;;;;19.10;16.70;;;;;;;;;;4982142;28;20611;-76
2023/05/25 01:30:52;;;;;;;18.17;16.27;;;;;;;;;;4992714;28;20755;-76
2023/05/25 01:33:18;;;;;;;18.10;15.57;;;;;;;;;;4998151;28;20295;-76
2023/05/25 01:35:44;;;;;;;18.17;16.17;;;;;;;;;;4992213;28;20735;-75
2023/05/25 01:38:10;;;;;;;19.53;16.63;;;;;;;;;;5000618;28;20229;-76
2023/05/25 01:40:35;;;;;;;20.80;16.80;;;;;;;;;;4982411;28;20218;-76
2023/05/25 01:43:02;;;;;;;18.57;16.63;;;;;;;;;;4990646;28;20333;-76
2023/05/25 01:45:31;;;;;;;18.33;16.43;;;;;;;;;;4999006;28;20224;-76
2023/05/25 01:48:12;;;;;;;19.20;16.87;;;;;;;;;;5004980;28;20286;-76
2023/05/25 01:51:14;;;;;;;19.53;16.97;;;;;;;;;;5001567;28;20247;-76
2023/05/25 01:53:42;;;;;;;18.07;16.27;;;;;;;;;;5016635;28;20227;-76
2023/05/25 01:56:10;;;;;;;19.30;15.83;;;;;;;;;;4985906;28;20231;-75
2023/05/25 01:58:46;;;;;;;17.77;15.17;;;;;;;;;;5001085;28;20231;-76
2023/05/25 02:01:13;;;;;;;20.67;16.37;;;;;;;;;;4981634;28;20220;-75
2023/05/25 02:03:39;;;;;;;18.10;16.20;;;;;;;;;;4993595;28;20229;-76
2023/05/25 02:06:05;;;;;;;19.83;17.00;;;;;;;;;;4997288;28;20225;-76
2023/05/25 02:08:36;;;;;;;18.27;16.27;;;;;;;;;;4998624;28;20228;-76
2023/05/25 02:11:06;;;;;;;19.83;16.30;;;;;;;;;;4999341;28;20773;-74
2023/05/25 02:13:34;;;;;;;21.17;16.70;;;;;;;;;;5006369;28;20607;-75
2023/05/25 02:16:00;;;;;;;18.90;16.27;;;;;;;;;;5010420;28;20236;-76
2023/05/25 02:18:28;;;;;;;16.17;14.63;;;;;;;;;;5019952;28;20237;-76
2023/05/25 02:20:53;;;;;;;16.10;14.43;;;;;;;;;;4999177;28;20233;-75
2023/05/25 02:23:22;;;;;;;16.13;14.47;;;;;;;;;;4994450;28;20799;-76
2023/05/25 02:25:50;;;;;;;16.23;14.53;;;;;;;;;;4983606;28;20222;-75
2023/05/25 02:28:18;;;;;;;15.53;13.83;;;;;;;;;;5000732;28;20611;-75
2023/05/25 02:30:46;;;;;;;15.50;12.97;;;;;;;;;;4997715;28;20251;-75
2023/05/25 02:33:12;;;;;;;17.63;13.87;;;;;;;;;;5017006;28;20243;-75
2023/05/25 02:35:38;;;;;;;18.57;13.90;;;;;;;;;;5015856;28;20225;-75
2023/05/25 02:38:12;;;;;;;14.97;13.37;;;;;;;;;;5000071;28;20239;-75
2023/05/25 02:40:41;;;;;;;13.67;12.27;;;;;;;;;;4983924;28;20274;-76
2023/05/25 02:43:11;;;;;;;14.97;12.27;;;;;;;;;;4981252;28;20240;-75
2023/05/25 02:45:39;;;;;;;15.27;12.77;;;;;;;;;;4975890;28;20728;-74
2023/05/25 02:48:10;;;;;;;15.27;13.20;;;;;;;;;;4999130;28;20758;-75
2023/05/25 02:50:39;;;;;;;14.30;12.80;;;;;;;;;;5006242;28;20303;-75
2023/05/25 02:53:09;;;;;;;14.77;13.17;;;;;;;;;;5014502;28;20308;-77
2023/05/25 02:55:39;;;;;;;15.40;12.67;;;;;;;;;;4998729;28;20236;-77
2023/05/25 02:58:06;;;;;;;17.70;13.00;;;;;;;;;;4996588;28;20330;-75
2023/05/25 03:01:09;;;;;;;15.13;13.50;;;;;;;;;;4991793;28;20209;-74
2023/05/25 03:03:41;;;;;;;14.90;13.33;;;;;;;;;;4983763;28;20221;-75
2023/05/25 03:06:11;;;;;;;19.23;14.00;;;;;;;;;;5021917;28;20283;-76
2023/05/25 03:08:40;;;;;;;20.13;14.17;;;;;;;;;;4984572;28;20588;-74
2023/05/25 03:11:06;;;;;;;19.47;13.97;;;;;;;;;;5019125;28;20706;-74
2023/05/25 03:13:34;;;;;;;18.00;13.60;;;;;;;;;;5015106;28;20245;-75
2023/05/25 03:16:01;;;;;;;19.13;13.90;;;;;;;;;;4998157;28;20225;-75
2023/05/25 03:18:27;;;;;;;22.33;13.93;;;;;;;;;;5005743;28;20216;-75
2023/05/25 03:20:55;;;;;;;21.07;14.23;;;;;;;;;;4993705;28;20220;-74
2023/05/25 03:23:21;;;;;;;17.67;13.90;;;;;;;;;;5000465;28;20704;-75
2023/05/25 03:25:49;;;;;;;17.73;14.23;;;;;;;;;;4982563;28;20221;-75
2023/05/25 03:28:17;;;;;;;19.97;14.23;;;;;;;;;;4986555;28;20220;-74
2023/05/25 03:30:43;;;;;;;22.63;14.67;;;;;;;;;;4989322;28;20228;-76
2023/05/25 03:33:13;;;;;;;18.97;14.20;;;;;;;;;;4995768;28;20225;-75
2023/05/25 03:35:47;;;;;;;21.93;14.20;;;;;;;;;;5022810;28;20223;-75
2023/05/25 03:38:14;;;;;;;21.50;15.03;;;;;;;;;;4999918;28;20235;-75
2023/05/25 03:43:13;;;;;;;20.27;14.20;;;;;;;;;;4991688;28;20226;-82
2023/05/25 03:45:39;;;;;;;18.30;14.13;;;;;;;;;;4960797;28;20572;-82
2023/05/25 03:48:07;;;;;;;23.00;14.33;;;;;;;;;;4938654;28;21154;-82
2023/05/25 03:50:33;;;;;;;21.33;14.03;;;;;;;;;;4959802;28;20222;-82
2023/05/25 03:52:58;;;;;;;18.67;13.63;;;;;;;;;;4959313;28;20229;-82
2023/05/25 03:55:27;;;;;;;20.83;14.10;;;;;;;;;;4948164;28;20214;-79
2023/05/25 03:57:52;;;;;;;18.97;13.77;;;;;;;;;;4988425;28;20230;-78
2023/05/25 04:00:19;;;;;;;19.93;14.37;;;;;;;;;;4967936;28;20229;-79
2023/05/25 04:02:50;;;;;;;19.40;13.43;;;;;;;;;;4986239;28;20222;-78
2023/05/25 04:05:18;;;;;;;22.30;13.60;;;;;;;;;;4969727;28;20230;-78
2023/05/25 04:07:44;;;;;;;20.30;13.53;;;;;;;;;;5003766;28;20221;-80
2023/05/25 04:10:10;;;;;;;17.50;13.23;;;;;;;;;;4975951;28;20221;-78
2023/05/25 04:12:40;;;;;;;22.27;13.73;;;;;;;;;;4979344;28;20278;-81
2023/05/25 04:15:13;;;;;;;21.53;13.57;;;;;;;;;;5004088;28;20228;-82
2023/05/25 04:17:54;;;;;;;19.27;13.17;;;;;;;;;;4982832;28;20229;-82
2023/05/25 04:20:19;;;;;;;18.13;13.30;;;;;;;;;;4958868;28;20226;-82
2023/05/25 04:22:48;;;;;;;19.63;12.80;;;;;;;;;;4948770;28;20218;-81
2023/05/25 04:25:15;;;;;;;19.30;12.33;;;;;;;;;;4970605;28;20239;-80
2023/05/25 04:27:41;;;;;;;17.23;13.13;;;;;;;;;;4977302;28;20205;-80
2023/05/25 04:30:10;;;;;;;17.40;12.40;;;;;;;;;;4935215;28;20218;-82
2023/05/25 04:32:56;;;;;;;19.90;12.50;;;;;;;;;;5007057;28;20231;-82
2023/05/25 04:35:47;;;;;;;15.53;11.77;;;;;;;;;;4970317;28;20586;-82
2023/05/25 04:38:26;;;;;;;20.60;12.67;;;;;;;;;;4999081;28;20220;-82
2023/05/25 04:40:56;;;;;;;16.17;12.07;;;;;;;;;;4972008;28;20226;-82
2023/05/25 04:43:24;;;;;;;15.03;11.50;;;;;;;;;;4951473;28;22571;-82
2023/05/25 04:46:03;;;;;;;15.00;11.97;;;;;;;;;;4953910;28;20222;-82
2023/05/25 04:48:32;;;;;;;19.53;11.23;;;;;;;;;;4964210;28;20276;-82
2023/05/25 04:51:03;;;;;;;17.57;13.90;;;;;;;;;;4981831;28;20221;-81
2023/05/25 04:53:31;;;;;;;20.97;15.53;;;;;;;;;;4967204;28;20337;-78
2023/05/25 04:55:57;;;;;;;13.00;11.03;;;;;;;;;;4966669;28;20225;-79
2023/05/25 04:58:23;;;;;;;13.90;11.30;;;;;;;;;;4988043;28;20706;-78
2023/05/25 05:00:52;;;;;;;14.43;11.17;;;;;;;;;;4960336;28;20222;-80
2023/05/25 05:03:26;;;;;;;12.67;10.53;;;;;;;;;;4996702;28;20227;-80
2023/05/25 05:05:52;;;;;;;13.43;11.13;;;;;;;;;;4973688;28;20272;-78
2023/05/25 05:08:23;;;;;;;13.20;10.67;;;;;;;;;;4983478;28;20677;-81
2023/05/25 05:10:51;;;;;;;14.47;10.63;;;;;;;;;;4957478;28;20228;-83
2023/05/25 05:13:23;;;;;;;12.10;10.87;;;;;;;;;;4981165;28;20586;-83
2023/05/25 05:15:48;;;;;;;13.60;11.03;;;;;;;;;;4945291;28;20218;-81
2023/05/25 05:18:14;;;;;;;17.53;12.50;;;;;;;;;;4960085;28;20240;-82
2023/05/25 05:21:04;;;;;;;14.20;11.67;;;;;;;;;;4975039;28;20268;-79
2023/05/25 05:23:34;;;;;;;17.70;13.87;;;;;;;;;;4974762;28;20225;-80
2023/05/25 05:26:03;;;;;;;17.13;14.63;;;;;;;;;;4978565;28;20217;-79
2023/05/25 05:28:32;;;;;;;20.20;15.67;;;;;;;;;;4946388;28;20222;-78
2023/05/25 05:30:57;;;;;;;20.37;14.77;;;;;;;;;;4990563;28;20241;-82
2023/05/25 05:33:27;;;;;;;18.57;15.37;;;;;;;;;;4959439;28;20229;-80
2023/05/25 05:35:55;;;;;;;17.87;15.53;;;;;;;;;;4961884;28;20699;-82
2023/05/25 05:38:22;;;;;;;18.87;16.73;;;;;;;;;;4974478;28;20261;-82
2023/05/25 05:40:48;;;;;;;19.43;16.27;;;;;;;;;;4993798;28;20691;-82
2023/05/25 05:43:18;;;;;;;18.53;16.50;;;;;;;;;;4974928;28;20316;-80
2023/05/25 05:45:44;;;;;;;19.03;16.33;;;;;;;;;;4950107;28;20272;-81
2023/05/25 05:48:09;;;;;;;19.97;16.93;;;;;;;;;;4989905;28;20428;-80
2023/05/25 05:50:38;;;;;;;20.23;17.23;;;;;;;;;;4972561;28;20225;-82
2023/05/25 05:53:11;;;;;;;22.10;17.30;;;;;;;;;;4978370;23;20213;-75
2023/05/25 05:55:36;;;;;;;18.23;16.27;;;;;;;;;;5007805;23;20226;-80
2023/05/25 05:58:02;;;;;;;16.83;15.23;;;;;;;;;;4971409;28;20723;-79
2023/05/25 06:00:28;;;;;;;18.07;15.27;;;;;;;;;;4972939;28;20229;-78
2023/05/25 06:03:14;;;;;;;14.40;12.93;;;;;;;;;;4987176;28;20226;-81
2023/05/25 06:05:40;;;;;;;15.97;13.63;;;;;;;;;;4949570;28;20244;-80
2023/05/25 06:08:07;;;;;;;14.97;13.10;;;;;;;;;;4960534;28;20222;-81
2023/05/25 06:10:35;;;;;;;14.83;13.23;;;;;;;;;;4950683;28;20309;-82
2023/05/25 06:13:00;;;;;;;12.50;11.30;;;;;;;;;;4968957;28;20219;-79
2023/05/25 06:15:26;;;;;;;10.97;9.97;;;;;;;;;;4992478;28;20233;-79
2023/05/25 06:17:55;;;;;;;13.73;10.50;;;;;;;;;;4965946;28;20252;-79
2023/05/25 06:20:26;;;;;;;11.40;10.03;;;;;;;;;;4971235;28;20221;-80
2023/05/25 06:22:52;;;;;;;14.20;10.80;;;;;;;;;;4941659;28;20278;-82
2023/05/25 06:25:19;;;;;;;11.70;10.50;;;;;;;;;;4972443;28;20262;-79
2023/05/25 06:27:47;;;;;;;13.00;10.60;;;;;;;;;;4943061;28;20229;-81
2023/05/25 06:30:15;;;;;;;11.50;10.03;;;;;;;;;;4973648;28;20749;-77
2023/05/25 06:32:42;;;;;;;10.43;9.37;;;;;;;;;;4971472;28;20222;-79
2023/05/25 06:35:08;;;;;;;11.73;9.57;;;;;;;;;;4974909;28;20702;-80
2023/05/25 06:37:36;;;;;;;10.17;8.70;;;;;;;;;;4942736;28;20687;-79
2023/05/25 06:40:04;;;;;;;10.53;9.47;;;;;;;;;;4971379;28;20225;-79
2023/05/25 06:42:30;;;;;;;10.47;9.47;;;;;;;;;;4946868;28;20222;-78
2023/05/25 06:44:58;;;;;;;10.50;9.43;;;;;;;;;;4975334;28;20229;-81
2023/05/25 06:47:24;;;;;;;10.20;9.17;;;;;;;;;;4959239;28;20306;-81
2023/05/25 06:49:50;;;;;;;9.17;8.30;;;;;;;;;;4952653;28;20214;-80
2023/05/25 06:52:15;;;;;;;9.23;7.50;;;;;;;;;;4960042;28;20230;-79
2023/05/25 06:54:41;;;;;;;9.97;8.13;;;;;;;;;;4981381;28;20222;-80
2023/05/25 06:57:10;;;;;;;8.00;7.20;;;;;;;;;;4969374;28;20226;-78
2023/05/25 06:59:44;;;;;;;6.10;5.50;;;;;;;;;;4958337;28;20244;-76
2023/05/25 07:02:10;;;;;;;7.30;5.40;;;;;;;;;;4994440;28;20243;-81
2023/05/25 07:04:36;;;;;;;8.27;5.83;;;;;;;;;;4965212;28;20225;-83
2023/05/25 07:07:05;;;;;;;8.23;5.30;;;;;;;;;;4962065;28;20221;-79
2023/05/25 07:09:38;;;;;;;9.13;5.40;;;;;;;;;;4965801;28;20260;-83
2023/05/25 07:12:08;;;;;;;6.40;5.03;;;;;;;;;;4959887;28;20658;-81
2023/05/25 07:14:34;;;;;;;7.67;5.30;;;;;;;;;;4961099;28;20499;-83
2023/05/25 07:17:03;;;;;;;7.43;4.97;;;;;;;;;;4977914;28;20283;-81
2023/05/25 07:19:28;;;;;;;6.90;4.40;;;;;;;;;;4965527;28;20699;-83
2023/05/25 07:21:54;;;;;;;7.53;5.03;;;;;;;;;;4979049;28;20225;-80
2023/05/25 07:24:19;;;;;;;9.10;4.97;;;;;;;;;;4980908;28;20238;-83
2023/05/25 07:26:48;;;;;;;6.37;4.57;;;;;;;;;;4968847;28;20224;-81
2023/05/25 07:29:34;;;;;;;6.23;3.80;;;;;;;;;;4991718;28;20277;-82
2023/05/25 07:32:02;;;;;;;6.50;4.23;;;;;;;;;;4962054;28;20222;-83
2023/05/25 07:34:27;;;;;;;5.70;3.90;;;;;;;;;;4966324;28;20226;-83
2023/05/25 07:36:53;;;;;;;6.53;3.60;;;;;;;;;;4970339;28;20222;-81
2023/05/25 07:39:18;;;;;;;6.20;3.67;;;;;;;;;;4959664;28;20226;-80
2023/05/25 07:41:44;;;;;;;7.80;6.13;;;;;;;;;;4944958;28;20228;-83
2023/05/25 07:44:09;;;;;;;7.63;3.30;;;;;;;;;;4972438;28;20226;-82
2023/05/25 07:46:37;;;;;;;7.07;2.97;;;;;;;;;;4966255;28;20508;-81
2023/05/25 07:49:10;;;;;;;8.67;3.30;;;;;;;;;;4955232;28;20214;-80
2023/05/25 07:51:36;;;;;;;8.03;3.10;;;;;;;;;;4977625;28;20270;-79
2023/05/25 07:54:04;;;;;;;6.80;3.20;;;;;;;;;;4955338;28;20222;-81
2023/05/25 07:56:33;;;;;;;6.87;3.20;;;;;;;;;;4948837;28;20230;-80
2023/05/25 07:59:05;;;;;;;7.40;3.20;;;;;;;;;;4976323;28;20260;-78
2023/05/25 08:01:30;;;;;;;4.13;3.03;;;;;;;;;;4942925;28;20222;-79
2023/05/25 08:03:56;;;;;;;5.10;3.05;;;;;;;;;;4947867;28;20230;-83
2023/05/25 08:06:22;;;;;;;9.25;3.58;;;;;;;;;;4974253;28;20237;-82
2023/05/25 08:08:50;;;;;;;7.05;3.42;;;;;;;;;;4957391;28;20238;-82
2023/05/25 08:11:19;;;;;;;5.43;3.40;;;;;;;;;;4967796;28;20235;-82
2023/05/25 08:13:45;;;;;;;4.90;3.77;;;;;;;;;;4948071;28;20231;-82
2023/05/25 08:16:25;;;;;;;6.65;3.60;;;;;;;;;;4970255;28;20227;-81
2023/05/25 08:18:55;;;;;;;5.25;3.63;;;;;;;;;;4967340;28;20233;-81
2023/05/25 08:21:21;;;;;;;6.47;3.42;;;;;;;;;;4970851;28;20214;-82
2023/05/25 08:23:47;;;;;;;4.63;3.53;;;;;;;;;;4970330;28;20226;-84
2023/05/25 08:26:13;;;;;;;5.15;3.40;;;;;;;;;;4946717;28;20246;-82
2023/05/25 08:28:50;;;;;;;4.70;3.20;;;;;;;;;;4953040;28;20230;-82
2023/05/25 08:31:27;;;;;;;4.07;2.78;;;;;;;;;;4960774;28;20227;-81
2023/05/25 08:33:53;;;;;;;6.07;3.17;;;;;;;;;;4978384;28;20317;-82
2023/05/25 08:36:18;;;;;;;5.55;3.10;;;;;;;;;;4984111;28;20229;-82
2023/05/25 08:38:44;;;;;;;5.35;3.25;;;;;;;;;;4945802;28;20313;-80
2023/05/25 08:41:10;;;;;;;5.70;3.10;;;;;;;;;;4970454;28;20227;-82
2023/05/25 08:43:35;;;;;;;5.15;2.80;;;;;;;;;;4983812;28;20249;-83
2023/05/25 08:46:05;;;;;;;5.78;3.10;;;;;;;;;;4988653;28;20226;-82
2023/05/25 08:48:34;;;;;;;6.30;3.35;;;;;;;;;;4967516;28;20258;-82
2023/05/25 08:51:05;;;;;;;5.93;3.33;;;;;;;;;;4969394;28;20214;-82
2023/05/25 08:53:38;;;;;;;5.22;3.10;;;;;;;;;;4968439;28;20284;-80
2023/05/25 08:56:13;;;;;;;3.72;2.72;;;;;;;;;;4967437;28;20302;-81
2023/05/25 08:59:19;;;;;;;4.93;3.30;;;;;;;;;;4986906;28;20226;-80
2023/05/25 09:01:49;;;;;;;6.45;3.55;;;;;;;;;;4980844;28;20224;-79
2023/05/25 09:04:18;;;;;;;4.68;3.25;;;;;;;;;;4965738;28;20225;-81
2023/05/25 09:06:44;;;;;;;4.40;3.30;;;;;;;;;;4970631;28;20310;-81
2023/05/25 09:09:12;;;;;;;5.18;3.13;;;;;;;;;;4993369;28;20233;-82
2023/05/25 09:11:41;;;;;;;5.43;3.00;;;;;;;;;;4998426;28;20225;-81
2023/05/25 09:14:08;;;;;;;7.65;3.03;;;;;;;;;;5003911;23;20221;-76
2023/05/25 09:16:36;;;;;;;4.65;3.30;;;;;;;;;;4994857;28;20228;-75
2023/05/25 09:19:06;;;;;;;6.57;3.90;;;;;;;;;;5002216;28;20245;-76
2023/05/25 09:21:34;;;;;;;4.93;3.28;;;;;;;;;;4996221;28;20285;-75
2023/05/25 09:24:00;;;;;;;3.67;2.95;;;;;;;;;;4996542;28;20220;-75
2023/05/25 09:26:26;;;;;;;4.68;3.25;;;;;;;;;;5027619;28;20219;-75
2023/05/25 09:28:51;;;;;;;5.70;3.80;;;;;;;;;;5022820;28;20303;-75
2023/05/25 09:31:17;;;;;;;7.28;3.40;;;;;;;;;;4995300;28;20220;-75
2023/05/25 09:33:54;;;;;;;28.90;7.97;;;;;;;;;;5027073;28;20259;-75
2023/05/25 09:36:22;;;;;;;6.93;3.65;;;;;;;;;;5003704;28;20228;-75
2023/05/25 09:38:52;;;;;;;4.80;3.30;;;;;;;;;;4995622;28;20259;-76
2023/05/25 09:41:18;;;;;;;4.13;3.03;;;;;;;;;;4994564;28;20775;-75
2023/05/25 09:43:46;;;;;;;6.07;3.25;;;;;;;;;;4995208;28;20252;-74
2023/05/25 09:46:11;;;;;;;7.78;3.47;;;;;;;;;;5028189;28;20581;-75
2023/05/25 09:48:40;;;;;;;4.22;2.83;;;;;;;;;;4994680;28;20219;-75
2023/05/25 09:51:07;;;;;;;3.92;2.50;;;;;;;;;;4996438;28;20613;-76
2023/05/25 09:53:35;;;;;;;4.30;3.10;;;;;;;;;;5028390;28;20592;-76
2023/05/25 09:56:00;;;;;;;6.07;3.05;;;;;;;;;;5027749;28;20274;-75
2023/05/25 09:58:28;;;;;;;5.32;2.63;;;;;;;;;;5038670;28;20254;-74
2023/05/25 10:00:56;;;;;;;5.00;2.80;;;;;;;;;;5028926;28;20644;-74
2023/05/25 10:03:21;;;;;;;3.70;2.40;;;;;;;;;;4988860;28;20224;-75
2023/05/25 10:05:49;;;;;;;6.20;3.10;;;;;;;;;;5012153;28;20682;-75
2023/05/25 10:08:16;;;;;;;5.15;2.88;;;;;;;;;;5026798;28;20217;-75
2023/05/25 10:10:45;;;;;;;5.50;3.00;;;;;;;;;;5022902;28;20698;-75
2023/05/25 10:13:13;;;;;;;3.85;2.80;;;;;;;;;;5018544;28;20220;-75
2023/05/25 10:15:41;;;;;;;5.50;3.13;;;;;;;;;;5040518;28;20262;-75
2023/05/25 10:18:06;;;;;;;5.53;2.80;;;;;;;;;;5011427;28;20227;-74
2023/05/25 10:20:39;;;;;;;6.05;3.10;;;;;;;;;;5020095;28;20305;-75
2023/05/25 10:23:14;;;;;;;5.00;2.90;;;;;;;;;;5010851;28;20212;-75
2023/05/25 10:25:48;;;;;;;5.68;2.72;;;;;;;;;;5011587;28;20227;-75
2023/05/25 10:28:20;;;;;;;6.53;3.25;;;;;;;;;;4993518;28;20220;-74
2023/05/25 10:30:48;;;;;;;5.75;2.92;;;;;;;;;;5022012;28;20255;-76
2023/05/25 10:33:13;;;;;;;5.00;3.00;;;;;;;;;;4994470;28;20231;-74
2023/05/25 10:35:39;;;;;;;4.07;2.70;;;;;;;;;;4990862;28;20223;-75
2023/05/25 10:38:10;;;;;;;6.43;3.13;;;;;;;;;;4992827;28;20603;-73
2023/05/25 10:40:38;;;;;;;4.43;3.05;;;;;;;;;;4997217;28;20222;-74
2023/05/25 10:43:06;;;;;;;4.97;2.75;;;;;;;;;;5020657;28;20212;-74
2023/05/25 10:45:32;;;;;;;6.88;3.00;;;;;;;;;;5035272;28;20220;-75
2023/05/25 10:48:00;;;;;;;7.72;3.03;;;;;;;;;;5007964;28;20249;-75
2023/05/25 10:50:26;;;;;;;4.18;2.63;;;;;;;;;;5018936;28;20212;-77
2023/05/25 10:53:00;;;;;;;5.82;3.00;;;;;;;;;;5016614;28;20217;-74
2023/05/25 10:55:30;;;;;;;8.02;2.78;;;;;;;;;;5019726;28;20716;-75
2023/05/25 10:58:13;;;;;;;5.95;3.42;;;;;;;;;;5016673;28;20277;-75
2023/05/25 11:00:39;;;;;;;5.45;3.28;;;;;;;;;;5018192;28;20277;-75
2023/05/25 11:03:07;;;;;;;6.82;3.08;;;;;;;;;;5024893;28;20220;-75
2023/05/25 11:05:38;;;;;;;7.07;3.55;;;;;;;;;;5024872;28;20243;-75
2023/05/25 11:08:05;;;;;;;6.30;3.78;;;;;;;;;;5006308;28;20439;-76
2023/05/25 11:10:48;;;;;;;6.68;3.47;;;;;;;;;;5023328;28;20212;-75
2023/05/25 11:13:36;;;;;;;9.95;3.55;;;;;;;;;;5035523;28;20231;-75
2023/05/25 11:16:16;;;;;;;7.10;3.42;;;;;;;;;;5003457;28;20609;-75
2023/05/25 11:18:42;;;;;;;7.53;3.95;;;;;;;;;;5025792;28;20270;-75
2023/05/25 11:21:43;;;;;;;7.28;3.10;;;;;;;;;;4991322;28;20213;-76
2023/05/25 11:24:17;;;;;;;5.85;3.17;;;;;;;;;;5024573;28;20602;-76
2023/05/25 11:26:59;;;;;;;8.27;4.00;;;;;;;;;;5025983;28;20290;-75
2023/05/25 11:29:25;;;;;;;4.57;3.03;;;;;;;;;;5020357;28;20223;-76
2023/05/25 11:31:53;;;;;;;7.18;3.70;;;;;;;;;;4994331;28;20250;-75
2023/05/25 11:34:23;;;;;;;6.53;3.47;;;;;;;;;;5037553;28;20216;-75
2023/05/25 11:36:54;;;;;;;7.65;3.40;;;;;;;;;;5021199;28;20220;-75
2023/05/25 11:39:23;;;;;;;7.35;3.50;;;;;;;;;;5010361;28;20236;-77
2023/05/25 11:41:57;;;;;;;7.15;3.20;;;;;;;;;;5039450;28;20216;-76
2023/05/25 11:44:28;;;;;;;7.60;3.72;;;;;;;;;;5025518;28;20307;-75
2023/05/25 11:46:57;;;;;;;7.38;3.80;;;;;;;;;;5024663;28;20216;-76
2023/05/25 11:49:27;;;;;;;9.48;3.45;;;;;;;;;;5040363;28;20220;-77
2023/05/25 11:51:53;;;;;;;7.32;3.55;;;;;;;;;;5025379;28;20685;-75
2023/05/25 11:54:22;;;;;;;9.90;3.90;;;;;;;;;;5012975;28;20346;-77
2023/05/25 11:56:50;;;;;;;7.63;3.58;;;;;;;;;;5027375;28;20232;-77
2023/05/25 11:59:18;;;;;;;7.15;3.42;;;;;;;;;;5027680;28;20235;-77
2023/05/25 12:01:52;;;;;;;7.00;3.42;;;;;;;;;;5012400;28;20283;-76
2023/05/25 12:04:20;;;;;;;7.60;3.70;;;;;;;;;;5023855;28;20226;-75
2023/05/25 12:06:48;;;;;;;10.15;3.88;;;;;;;;;;4991860;28;20685;-76
2023/05/25 12:09:20;;;;;;;8.98;3.75;;;;;;;;;;5029183;28;20231;-75
2023/05/25 12:11:46;;;;;;;7.95;3.80;;;;;;;;;;5025216;28;20917;-75
2023/05/25 12:14:17;;;;;;;6.13;3.45;;;;;;;;;;5029299;28;20296;-75
2023/05/25 12:16:47;;;;;;;5.60;3.30;;;;;;;;;;5013517;28;20247;-74
2023/05/25 12:19:12;;;;;;;10.00;3.45;;;;;;;;;;4996347;28;20720;-75
2023/05/25 12:21:41;;;;;;;6.10;3.50;;;;;;;;;;5029361;28;20215;-75
2023/05/25 12:24:11;;;;;;;9.65;3.60;;;;;;;;;;4997223;28;20229;-76
2023/05/25 12:26:50;;;;;;;10.43;3.40;;;;;;;;;;5025905;28;20307;-75
2023/05/25 12:29:18;;;;;;;6.72;3.70;;;;;;;;;;5024310;28;20250;-75
2023/05/25 12:31:46;;;;;;;11.48;3.95;;;;;;;;;;5025330;28;20216;-76
2023/05/25 12:34:17;;;;;;;11.10;3.63;;;;;;;;;;5028871;28;20224;-76
2023/05/25 12:36:55;;;;;;;8.85;3.78;;;;;;;;;;5041025;28;20227;-75
2023/05/25 12:39:28;;;;;;;9.80;3.90;;;;;;;;;;5021416;28;20232;-76
2023/05/25 12:42:03;;;;;;;6.75;3.42;;;;;;;;;;5036889;28;20721;-75
2023/05/25 12:44:32;;;;;;;9.35;3.95;;;;;;;;;;5010482;28;20759;-75
2023/05/25 12:47:20;;;;;;;8.82;3.17;;;;;;;;;;4996092;28;20216;-74
2023/05/25 12:49:52;;;;;;;10.30;3.92;;;;;;;;;;5040241;28;20227;-75
2023/05/25 12:52:37;;;;;;;8.35;3.50;;;;;;;;;;5026807;28;20638;-76
2023/05/25 12:55:28;;;;;;;9.35;4.10;;;;;;;;;;5004895;28;20216;-76
2023/05/25 12:57:58;;;;;;;14.10;4.13;;;;;;;;;;5019008;28;20233;-75
2023/05/25 13:00:25;;;;;;;10.48;4.13;;;;;;;;;;5019674;28;20251;-74
2023/05/25 13:02:54;;;;;;;10.07;3.72;;;;;;;;;;5036848;28;20224;-75
2023/05/25 13:05:21;;;;;;;8.73;3.95;;;;;;;;;;5040407;28;20255;-74
2023/05/25 13:07:48;;;;;;;10.63;4.30;;;;;;;;;;4995599;28;20216;-75
2023/05/25 13:10:17;;;;;;;8.30;4.15;;;;;;;;;;5010013;28;20677;-75
2023/05/25 13:12:44;;;;;;;9.98;3.58;;;;;;;;;;5022623;28;20208;-75
2023/05/25 13:15:13;;;;;;;8.98;3.88;;;;;;;;;;5009437;28;20212;-75
2023/05/25 13:17:44;;;;;;;9.88;4.28;;;;;;;;;;5009305;28;20227;-74
2023/05/25 13:20:15;;;;;;;5.72;3.35;;;;;;;;;;5019428;28;20242;-75
2023/05/25 13:22:46;;;;;;;11.15;4.22;;;;;;;;;;5020608;28;20709;-75
2023/05/25 13:25:12;;;;;;;8.98;4.03;;;;;;;;;;5023861;28;20220;-75
2023/05/25 13:27:43;;;;;;;9.05;3.90;;;;;;;;;;5003893;28;20665;-75
2023/05/25 13:30:12;;;;;;;8.68;3.97;;;;;;;;;;5004752;28;20231;-75
2023/05/25 13:32:43;;;;;;;13.07;4.55;;;;;;;;;;4994479;28;20228;-75
2023/05/25 13:35:17;;;;;;;9.25;4.10;;;;;;;;;;5011321;28;20327;-75
2023/05/25 13:37:44;;;;;;;10.40;4.13;;;;;;;;;;5026906;28;20224;-74
2023/05/25 13:40:10;;;;;;;10.35;3.90;;;;;;;;;;5010053;28;20220;-75
2023/05/25 13:42:35;;;;;;;9.25;3.92;;;;;;;;;;4995870;28;20258;-74
2023/05/25 13:45:03;;;;;;;9.82;4.40;;;;;;;;;;5027256;28;20212;-75
2023/05/25 13:47:29;;;;;;;8.20;4.30;;;;;;;;;;5026424;28;20270;-75
2023/05/25 13:50:02;;;;;;;8.48;4.30;;;;;;;;;;5010118;28;20215;-75
2023/05/25 13:52:27;;;;;;;11.88;4.75;;;;;;;;;;4990149;28;20323;-75
2023/05/25 13:54:55;;;;;;;9.68;4.28;;;;;;;;;;5009147;28;20737;-74
2023/05/25 13:57:23;;;;;;;8.30;4.28;;;;;;;;;;5025950;28;20598;-75
2023/05/25 13:59:48;;;;;;;8.27;4.18;;;;;;;;;;5011607;28;20240;-75
2023/05/25 14:02:14;;;;;;;10.20;4.25;;;;;;;;;;5025704;28;20212;-75
2023/05/25 14:04:42;;;;;;;10.38;4.57;;;;;;;;;;5022801;28;21132;-75
2023/05/25 14:07:07;;;;;;;9.40;4.20;;;;;;;;;;5027488;28;20330;-75
2023/05/25 14:09:33;;;;;;;11.02;4.50;;;;;;;;;;4978277;28;20685;-75
2023/05/25 14:12:01;;;;;;;9.68;4.20;;;;;;;;;;4991545;28;20220;-75
2023/05/25 14:14:27;;;;;;;9.07;4.00;;;;;;;;;;5025300;28;20220;-74
2023/05/25 14:16:57;;;;;;;9.13;4.05;;;;;;;;;;5011020;28;20264;-74
2023/05/25 14:19:23;;;;;;;7.85;3.90;;;;;;;;;;5009502;28;20767;-72
2023/05/25 14:21:55;;;;;;;8.77;4.20;;;;;;;;;;5022885;28;20232;-75
2023/05/25 14:24:23;;;;;;;9.25;4.10;;;;;;;;;;5010553;28;20224;-75
2023/05/25 14:26:51;;;;;;;13.68;4.10;;;;;;;;;;5009743;28;20227;-74
2023/05/25 14:29:16;;;;;;;11.60;4.82;;;;;;;;;;5004792;28;20273;-75
2023/05/25 14:31:42;;;;;;;8.35;4.32;;;;;;;;;;5004418;28;20219;-74
2023/05/25 14:34:08;;;;;;;11.75;4.63;;;;;;;;;;5020512;28;20208;-76
2023/05/25 14:36:33;;;;;;;11.98;4.10;;;;;;;;;;5016461;28;20225;-74
2023/05/25 14:39:02;;;;;;;11.75;4.45;;;;;;;;;;5020509;28;20443;-74
2023/05/25 14:41:29;;;;;;;7.50;3.90;;;;;;;;;;5020712;28;20389;-74
2023/05/25 14:43:55;;;;;;;9.52;4.20;;;;;;;;;;4993094;28;20233;-74
2023/05/25 14:46:21;;;;;;;10.85;4.50;;;;;;;;;;5025263;28;20216;-74